createdAt,value
2018-05-26T00:02:23.137Z,14.27
2018-05-26T00:04:53.147Z,13.37
2018-05-26T00:07:29.272Z,14.13
2018-05-26T00:09:58.461Z,13.70
2018-05-26T00:12:27.641Z,14.10
2018-05-26T00:14:56.899Z,13.67
2018-05-26T00:17:26.098Z,13.23
2018-05-26T00:19:56.082Z,13.83
2018-05-26T00:22:25.284Z,13.67
2018-05-26T00:24:54.462Z,13.50
2018-05-26T00:27:23.683Z,13.83
2018-05-26T00:29:52.875Z,13.83
2018-05-26T00:32:22.055Z,13.73
2018-05-26T00:34:51.266Z,13.63
2018-05-26T00:37:20.441Z,13.93
2018-05-26T00:39:49.667Z,14.20
2018-05-26T00:42:18.867Z,13.07
2018-05-26T00:44:48.057Z,13.50
2018-05-26T00:47:17.303Z,13.30
2018-05-26T00:49:47.230Z,13.90
2018-05-26T00:52:20.167Z,14.33
2018-05-26T00:55:02.447Z,14.43
2018-05-26T00:57:31.612Z,14.03
2018-05-26T01:00:00.829Z,14.20
2018-05-26T01:02:29.982Z,14.17
2018-05-26T01:04:59.170Z,15.63
2018-05-26T01:07:34.267Z,13.97
2018-05-26T01:10:03.480Z,13.93
2018-05-26T01:12:32.690Z,14.47
2018-05-26T01:15:01.965Z,14.63
2018-05-26T01:17:38.779Z,14.33
2018-05-26T01:20:11.841Z,14.20
2018-05-26T01:22:41.051Z,14.40
2018-05-26T01:25:10.246Z,14.37
2018-05-26T01:27:39.460Z,15.30
2018-05-26T01:30:08.624Z,15.57
2018-05-26T01:32:37.834Z,15.73
2018-05-26T01:35:07.040Z,15.23
2018-05-26T01:37:36.252Z,14.40
2018-05-26T01:40:05.422Z,15.43
2018-05-26T01:42:34.640Z,16.00
2018-05-26T01:45:03.822Z,15.30
2018-05-26T01:47:33.004Z,15.33
2018-05-26T01:50:02.132Z,15.23
2018-05-26T01:52:31.319Z,15.20
2018-05-26T01:55:00.511Z,15.07
2018-05-26T01:57:29.647Z,15.50
2018-05-26T01:59:58.849Z,16.47
2018-05-26T02:02:28.836Z,15.20
2018-05-26T02:04:58.140Z,16.70
2018-05-26T02:07:27.319Z,15.03
2018-05-26T02:09:56.546Z,14.67
2018-05-26T02:12:25.716Z,15.57
2018-05-26T02:14:54.890Z,15.53
2018-05-26T02:17:24.116Z,16.33
2018-05-26T02:19:53.306Z,16.33
2018-05-26T02:22:22.467Z,15.63
2018-05-26T02:24:52.441Z,16.47
2018-05-26T02:27:21.634Z,16.70
2018-05-26T02:29:50.814Z,16.00
2018-05-26T02:32:20.007Z,16.10
2018-05-26T02:34:49.150Z,16.43
2018-05-26T02:37:19.128Z,17.30
2018-05-26T02:39:48.347Z,17.60
2018-05-26T02:42:18.377Z,16.73
2018-05-26T02:44:47.548Z,16.87
2018-05-26T02:50:33.263Z,15.70
2018-05-26T02:53:02.501Z,16.60
2018-05-26T02:55:32.473Z,16.93
2018-05-26T02:58:01.677Z,16.73
2018-05-26T03:00:30.927Z,16.87
2018-05-26T03:03:00.150Z,16.63
2018-05-26T03:05:35.017Z,17.70
2018-05-26T03:08:09.787Z,19.57
2018-05-26T03:10:44.597Z,18.97
2018-05-26T03:13:20.081Z,20.23
2018-05-26T03:16:02.938Z,17.87
2018-05-26T03:18:32.246Z,18.20
2018-05-26T03:21:02.196Z,17.90
2018-05-26T03:23:31.369Z,17.23
2018-05-26T03:26:01.533Z,17.23
2018-05-26T03:28:30.740Z,17.50
2018-05-26T03:31:01.116Z,16.53
2018-05-26T03:33:31.031Z,16.43
2018-05-26T03:36:00.976Z,16.93
2018-05-26T03:38:30.164Z,15.17
2018-05-26T03:40:59.541Z,15.73
2018-05-26T03:43:29.022Z,15.60
2018-05-26T03:45:58.992Z,15.70
2018-05-26T03:48:28.233Z,14.57
2018-05-26T03:50:57.337Z,14.43
2018-05-26T03:53:26.505Z,14.47
2018-05-26T03:59:10.444Z,14.13
2018-05-26T04:01:39.739Z,13.10
2018-05-26T04:04:09.033Z,13.00
2018-05-26T04:06:38.300Z,14.60
2018-05-26T04:09:07.627Z,13.20
2018-05-26T04:11:37.723Z,13.77
2018-05-26T04:14:07.789Z,13.80
2018-05-26T04:16:37.079Z,14.47
2018-05-26T04:19:06.326Z,14.27
2018-05-26T04:21:36.368Z,14.33
2018-05-26T04:24:05.600Z,13.53
2018-05-26T04:26:34.861Z,13.07
2018-05-26T04:29:04.882Z,13.10
2018-05-26T04:31:34.175Z,14.30
2018-05-26T04:34:03.419Z,13.60
2018-05-26T04:36:33.457Z,13.57
2018-05-26T04:39:02.693Z,13.73
2018-05-26T04:41:31.953Z,14.40
2018-05-26T04:44:02.038Z,13.40
2018-05-26T04:46:32.061Z,14.67
2018-05-26T04:49:01.367Z,14.27
2018-05-26T04:51:30.601Z,14.67
2018-05-26T04:53:59.850Z,13.33
2018-05-26T04:56:29.906Z,13.97
2018-05-26T04:58:59.209Z,13.97
2018-05-26T05:01:28.515Z,12.60
2018-05-26T05:03:57.917Z,12.53
2018-05-26T05:06:27.196Z,12.47
2018-05-26T05:08:56.534Z,12.57
2018-05-26T05:11:26.610Z,11.93
2018-05-26T05:13:55.927Z,11.07
2018-05-26T05:16:25.175Z,10.30
2018-05-26T05:18:55.243Z,10.70
2018-05-26T05:21:24.540Z,10.53
2018-05-26T05:23:53.859Z,10.83
2018-05-26T05:26:23.122Z,10.77
2018-05-26T05:28:52.514Z,10.70
2018-05-26T05:31:21.966Z,9.93
2018-05-26T05:33:51.296Z,10.20
2018-05-26T05:36:20.588Z,10.47
2018-05-26T05:38:49.873Z,10.37
2018-05-26T05:41:19.262Z,10.30
2018-05-26T05:43:48.538Z,9.80
2018-05-26T05:46:17.933Z,10.23
2018-05-26T05:48:48.162Z,10.77
2018-05-26T05:51:17.632Z,10.60
2018-05-26T05:53:47.014Z,10.40
2018-05-26T05:56:16.383Z,10.43
2018-05-26T05:58:47.779Z,10.00
2018-05-26T06:01:17.613Z,10.40
2018-05-26T06:03:46.594Z,10.30
2018-05-26T06:06:19.629Z,10.37
2018-05-26T06:08:56.384Z,10.20
2018-05-26T06:11:26.134Z,10.23
2018-05-26T06:13:55.389Z,9.80
2018-05-26T06:16:24.617Z,10.07
2018-05-26T06:18:53.832Z,9.97
2018-05-26T06:21:23.010Z,10.00
2018-05-26T06:23:52.327Z,9.50
2018-05-26T06:26:38.149Z,9.93
2018-05-26T06:29:07.304Z,8.73
2018-05-26T06:31:36.472Z,10.20
2018-05-26T06:34:05.695Z,10.13
2018-05-26T06:36:34.884Z,9.50
2018-05-26T06:39:04.002Z,9.60
2018-05-26T06:41:33.171Z,9.80
2018-05-26T06:44:05.851Z,9.47
2018-05-26T06:46:34.981Z,9.53
2018-05-26T06:49:04.187Z,8.90
2018-05-26T06:51:33.395Z,9.00
2018-05-26T06:54:02.583Z,8.77
2018-05-26T06:56:31.729Z,8.13
2018-05-26T06:59:00.976Z,8.23
2018-05-26T07:01:32.090Z,8.23
2018-05-26T07:04:01.214Z,9.33
2018-05-26T07:06:31.177Z,8.30
2018-05-26T07:09:00.353Z,7.90
2018-05-26T07:11:29.590Z,7.93
2018-05-26T07:13:58.770Z,7.73
2018-05-26T07:16:27.983Z,6.83
2018-05-26T07:18:57.226Z,7.37
2018-05-26T07:21:26.384Z,6.73
2018-05-26T07:23:55.583Z,6.23
2018-05-26T07:26:24.756Z,6.40
2018-05-26T07:28:53.995Z,6.30
2018-05-26T07:31:23.193Z,5.60
2018-05-26T07:33:52.351Z,5.50
2018-05-26T07:36:21.587Z,5.57
2018-05-26T07:38:50.703Z,5.33
2018-05-26T07:41:19.836Z,5.03
2018-05-26T07:43:49.008Z,5.20
2018-05-26T07:46:18.923Z,5.17
2018-05-26T07:48:48.105Z,4.83
2018-05-26T07:51:17.214Z,4.70
2018-05-26T07:53:46.363Z,4.63
2018-05-26T07:56:15.479Z,4.73
2018-05-26T07:58:44.673Z,4.27
2018-05-26T08:01:13.840Z,4.20
2018-05-26T08:03:48.804Z,4.03
2018-05-26T08:06:17.974Z,4.17
2018-05-26T08:08:47.176Z,4.03
2018-05-26T08:11:16.403Z,4.13
2018-05-26T08:13:45.530Z,4.20
2018-05-26T08:16:15.471Z,4.13
2018-05-26T08:18:44.688Z,4.50
2018-05-26T08:21:13.864Z,3.90
2018-05-26T08:23:43.088Z,4.00
2018-05-26T08:26:16.280Z,3.90
2018-05-26T08:28:45.463Z,3.90
2018-05-26T08:31:14.717Z,4.07
2018-05-26T08:33:43.895Z,3.80
2018-05-26T08:36:13.066Z,3.80
2018-05-26T08:38:42.385Z,3.73
2018-05-26T08:41:11.566Z,3.93
2018-05-26T08:43:40.748Z,3.73
2018-05-26T08:46:09.911Z,3.73
2018-05-26T08:48:39.158Z,3.93
2018-05-26T08:51:12.152Z,3.77
2018-05-26T08:53:41.357Z,4.00
2018-05-26T08:56:10.555Z,3.57
2018-05-26T08:58:39.659Z,3.77
2018-05-26T09:01:08.839Z,3.80
2018-05-26T09:03:38.151Z,3.53
2018-05-26T09:06:07.345Z,4.00
2018-05-26T09:08:36.577Z,3.97
2018-05-26T09:11:06.567Z,4.03
2018-05-26T09:13:35.741Z,3.70
2018-05-26T09:16:04.935Z,4.10
2018-05-26T09:18:34.171Z,3.60
2018-05-26T09:21:03.335Z,3.80
2018-05-26T09:23:32.543Z,3.70
2018-05-26T09:26:02.608Z,3.67
2018-05-26T09:28:31.739Z,3.40
2018-05-26T09:31:00.899Z,3.70
2018-05-26T09:33:30.864Z,3.60
2018-05-26T09:36:00.092Z,3.60
2018-05-26T09:38:29.343Z,3.77
2018-05-26T09:40:58.452Z,3.73
2018-05-26T09:43:27.710Z,3.97
2018-05-26T09:49:21.033Z,3.77
2018-05-26T09:51:50.237Z,3.60
2018-05-26T09:54:26.361Z,3.57
2018-05-26T09:56:55.550Z,3.40
2018-05-26T09:59:32.587Z,3.27
2018-05-26T10:05:10.605Z,3.30
2018-05-26T10:07:39.823Z,3.37
2018-05-26T10:10:08.998Z,3.60
2018-05-26T10:12:38.158Z,3.30
2018-05-26T10:15:08.173Z,3.00
2018-05-26T10:17:43.345Z,2.97
2018-05-26T10:20:30.003Z,2.80
2018-05-26T10:22:59.171Z,3.20
2018-05-26T10:25:41.360Z,2.97
2018-05-26T10:28:10.500Z,2.70
2018-05-26T10:30:46.637Z,2.50
2018-05-26T10:33:15.896Z,2.87
2018-05-26T10:35:49.495Z,2.75
2018-05-26T10:38:18.820Z,2.60
2018-05-26T10:40:54.065Z,2.72
2018-05-26T10:43:23.243Z,2.00
2018-05-26T10:46:04.274Z,2.40
2018-05-26T10:48:34.170Z,2.03
2018-05-26T10:51:03.509Z,2.37
2018-05-26T10:53:32.830Z,2.30
2018-05-26T10:56:04.815Z,2.10
2018-05-26T10:58:41.174Z,2.10
2018-05-26T11:01:10.390Z,2.37
2018-05-26T11:03:39.610Z,2.47
2018-05-26T11:06:08.818Z,1.87
2018-05-26T11:08:38.060Z,2.17
2018-05-26T11:11:07.258Z,2.33
2018-05-26T11:13:38.402Z,2.00
2018-05-26T11:16:10.791Z,2.15
2018-05-26T11:18:41.250Z,2.53
2018-05-26T11:21:22.759Z,2.10
2018-05-26T11:23:59.173Z,2.17
2018-05-26T11:26:28.380Z,2.20
2018-05-26T11:28:57.582Z,2.45
2018-05-26T11:31:26.760Z,2.58
2018-05-26T11:34:03.880Z,2.62
2018-05-26T11:36:33.068Z,2.60
2018-05-26T11:39:02.233Z,2.60
2018-05-26T11:41:31.468Z,2.67
2018-05-26T11:44:00.643Z,2.55
2018-05-26T11:46:29.869Z,2.87
2018-05-26T11:48:59.034Z,2.53
2018-05-26T11:51:28.232Z,2.55
2018-05-26T11:53:57.467Z,2.80
2018-05-26T11:56:26.645Z,3.30
2018-05-26T11:58:55.773Z,2.90
2018-05-26T12:01:24.950Z,3.30
2018-05-26T12:06:51.851Z,3.13
2018-05-26T12:09:21.186Z,3.20
2018-05-26T12:11:50.593Z,3.50
2018-05-26T12:14:19.729Z,3.40
2018-05-26T12:16:48.931Z,3.10
2018-05-26T12:19:18.897Z,2.87
2018-05-26T12:21:48.067Z,3.03
2018-05-26T12:24:17.247Z,2.80
2018-05-26T12:26:46.424Z,2.80
2018-05-26T12:29:15.546Z,2.60
2018-05-26T12:31:45.504Z,2.57
2018-05-26T12:34:14.690Z,2.80
2018-05-26T12:36:43.857Z,3.10
2018-05-26T12:39:13.819Z,2.63
2018-05-26T12:41:43.015Z,2.83
2018-05-26T12:44:12.237Z,3.08
2018-05-26T12:46:41.414Z,2.60
2018-05-26T12:49:10.628Z,2.80
2018-05-26T12:51:39.809Z,3.15
2018-05-26T12:54:09.007Z,2.70
2018-05-26T12:56:48.569Z,2.80
2018-05-26T12:59:17.745Z,2.70
2018-05-26T13:01:46.935Z,3.17
2018-05-26T13:04:16.062Z,2.70
2018-05-26T13:06:45.245Z,2.85
2018-05-26T13:09:14.416Z,2.70
2018-05-26T13:11:43.562Z,2.60
2018-05-26T13:14:12.884Z,3.00
2018-05-26T13:16:41.836Z,2.78
2018-05-26T13:19:10.979Z,2.72
2018-05-26T13:21:40.945Z,2.85
2018-05-26T13:24:16.884Z,2.92
2018-05-26T13:26:46.133Z,2.67
2018-05-26T13:29:15.279Z,2.60
2018-05-26T13:31:44.494Z,2.72
2018-05-26T13:34:13.652Z,2.65
2018-05-26T13:36:43.691Z,2.75
2018-05-26T13:42:07.308Z,2.67
2018-05-26T13:44:36.557Z,2.72
2018-05-26T13:47:05.711Z,2.70
2018-05-26T13:49:34.871Z,3.00
2018-05-26T13:52:04.054Z,3.30
2018-05-26T13:54:33.361Z,3.22
2018-05-26T13:57:22.234Z,3.05
2018-05-26T13:59:51.386Z,2.78
2018-05-26T14:02:20.659Z,3.10
2018-05-26T14:04:49.789Z,2.78
2018-05-26T14:07:19.000Z,2.67
2018-05-26T14:09:48.209Z,2.80
2018-05-26T14:12:17.336Z,2.80
2018-05-26T14:14:46.521Z,2.78
2018-05-26T14:17:15.820Z,2.90
2018-05-26T14:19:44.949Z,3.47
2018-05-26T14:22:14.135Z,3.05
2018-05-26T14:24:43.354Z,2.78
2018-05-26T14:27:30.512Z,2.62
2018-05-26T14:29:59.680Z,3.00
2018-05-26T14:32:28.876Z,3.00
2018-05-26T14:34:58.888Z,2.90
2018-05-26T14:37:28.043Z,2.78
2018-05-26T14:39:57.249Z,2.55
2018-05-26T14:42:26.418Z,2.60
2018-05-26T14:44:55.576Z,2.42
2018-05-26T14:47:25.531Z,2.67
2018-05-26T14:49:54.828Z,2.85
2018-05-26T14:52:23.965Z,2.60
2018-05-26T14:54:53.131Z,2.67
2018-05-26T14:57:22.319Z,2.70
2018-05-26T14:59:51.488Z,2.45
2018-05-26T15:02:20.716Z,2.65
2018-05-26T15:04:49.863Z,2.62
2018-05-26T15:07:19.067Z,2.90
2018-05-26T15:09:48.182Z,2.53
2018-05-26T15:12:18.075Z,2.70
2018-05-26T15:14:55.252Z,2.97
2018-05-26T15:17:24.752Z,3.30
2018-05-26T15:19:53.922Z,3.00
2018-05-26T15:22:23.844Z,2.60
2018-05-26T15:24:53.036Z,3.00
2018-05-26T15:27:22.210Z,2.85
2018-05-26T15:29:54.373Z,3.12
2018-05-26T15:32:23.538Z,2.78
2018-05-26T15:34:53.456Z,3.10
2018-05-26T15:37:22.660Z,3.30
2018-05-26T15:39:52.675Z,2.50
2018-05-26T15:42:22.602Z,2.78
2018-05-26T15:44:51.708Z,2.67
2018-05-26T15:47:21.611Z,2.65
2018-05-26T15:49:50.740Z,2.90
2018-05-26T15:52:19.923Z,2.90
2018-05-26T15:54:49.781Z,3.00
2018-05-26T15:57:18.956Z,2.47
2018-05-26T15:59:48.179Z,3.03
2018-05-26T16:02:17.348Z,2.92
2018-05-26T16:04:46.507Z,3.10
2018-05-26T16:07:16.453Z,3.15
2018-05-26T16:09:45.676Z,3.00
2018-05-26T16:12:25.613Z,3.55
2018-05-26T16:14:54.804Z,3.80
2018-05-26T16:17:23.983Z,3.50
2018-05-26T16:19:59.677Z,4.10
2018-05-26T16:22:29.893Z,3.65
2018-05-26T16:24:59.095Z,4.18
2018-05-26T16:27:31.699Z,3.72
2018-05-26T16:30:00.883Z,3.50
2018-05-26T16:32:30.074Z,3.20
2018-05-26T16:34:59.247Z,3.60
2018-05-26T16:37:28.456Z,3.20
2018-05-26T16:39:57.615Z,3.47
2018-05-26T16:42:26.782Z,3.35
2018-05-26T16:44:56.755Z,3.50
2018-05-26T16:47:25.976Z,3.20
2018-05-26T16:49:55.152Z,3.53
2018-05-26T16:52:24.411Z,3.53
2018-05-26T16:54:53.836Z,3.25
2018-05-26T16:57:26.240Z,3.08
2018-05-26T16:59:55.431Z,3.20
2018-05-26T17:02:44.097Z,3.10
2018-05-26T17:05:19.869Z,3.50
2018-05-26T17:07:51.016Z,3.60
2018-05-26T17:10:20.204Z,3.95
2018-05-26T17:12:50.204Z,3.60
2018-05-26T17:15:19.383Z,3.92
2018-05-26T17:17:48.579Z,3.60
2018-05-26T17:20:17.720Z,3.70
2018-05-26T17:22:46.897Z,3.85
2018-05-26T17:25:16.051Z,3.80
2018-05-26T17:27:45.961Z,3.60
2018-05-26T17:30:15.202Z,3.58
2018-05-26T17:32:44.383Z,3.58
2018-05-26T17:35:13.570Z,3.40
2018-05-26T17:37:42.713Z,3.65
2018-05-26T17:40:12.665Z,3.58
2018-05-26T17:42:41.897Z,3.87
2018-05-26T17:45:11.287Z,3.70
2018-05-26T17:47:40.450Z,3.90
2018-05-26T17:50:09.583Z,4.95
2018-05-26T17:52:38.793Z,4.45
2018-05-26T17:55:07.971Z,4.43
2018-05-26T17:57:37.100Z,3.95
2018-05-26T18:00:06.289Z,3.85
2018-05-26T18:02:35.464Z,4.00
2018-05-26T18:05:04.618Z,3.80
2018-05-26T18:07:34.792Z,3.58
2018-05-26T18:10:04.038Z,3.83
2018-05-26T18:12:33.325Z,3.70
2018-05-26T18:15:02.555Z,3.65
2018-05-26T18:17:32.460Z,4.03
2018-05-26T18:20:02.430Z,3.95
2018-05-26T18:22:31.699Z,3.30
2018-05-26T18:25:01.647Z,3.62
2018-05-26T18:27:30.862Z,3.97
2018-05-26T18:30:00.135Z,3.65
2018-05-26T18:32:29.363Z,3.87
2018-05-26T18:34:58.554Z,3.80
2018-05-26T18:37:27.738Z,4.07
2018-05-26T18:39:56.921Z,4.43
2018-05-26T18:42:26.091Z,4.55
2018-05-26T18:44:55.309Z,4.37
2018-05-26T18:47:24.471Z,4.50
2018-05-26T18:49:53.651Z,4.18
2018-05-26T18:52:23.672Z,4.00
2018-05-26T18:54:52.835Z,4.00
2018-05-26T18:57:22.004Z,3.92
2018-05-26T18:59:51.888Z,4.10
2018-05-26T19:02:21.856Z,4.70
2018-05-26T19:04:51.255Z,5.80
2018-05-26T19:07:20.439Z,6.00
2018-05-26T19:09:49.665Z,7.13
2018-05-26T19:12:20.900Z,7.50
2018-05-26T19:14:50.020Z,7.47
2018-05-26T19:17:20.013Z,9.13
2018-05-26T19:19:49.346Z,10.37
2018-05-26T19:22:18.522Z,9.27
2018-05-26T19:24:47.710Z,9.27
2018-05-26T19:27:20.498Z,9.83
2018-05-26T19:29:49.629Z,9.57
2018-05-26T19:32:19.586Z,8.67
2018-05-26T19:34:48.901Z,8.63
2018-05-26T19:37:17.887Z,7.90
2018-05-26T19:39:46.866Z,7.50
2018-05-26T19:42:19.663Z,7.70
2018-05-26T19:44:48.792Z,7.90
2018-05-26T19:47:18.044Z,8.37
2018-05-26T19:49:47.384Z,8.23
2018-05-26T19:52:16.565Z,7.10
2018-05-26T19:54:45.702Z,7.07
2018-05-26T19:57:14.903Z,6.90
2018-05-26T19:59:44.152Z,7.53
2018-05-26T20:02:13.353Z,7.70
2018-05-26T20:04:42.598Z,7.50
2018-05-26T20:07:11.773Z,7.70
2018-05-26T20:09:41.052Z,8.10
2018-05-26T20:12:10.190Z,7.47
2018-05-26T20:14:39.382Z,8.50
2018-05-26T20:17:08.550Z,7.40
2018-05-26T20:19:37.791Z,8.43
2018-05-26T20:22:07.139Z,9.10
2018-05-26T20:24:36.527Z,8.77
2018-05-26T20:27:06.612Z,9.17
2018-05-26T20:29:36.676Z,8.97
2018-05-26T20:32:06.080Z,8.00
2018-05-26T20:34:35.298Z,8.73
2018-05-26T20:37:04.467Z,8.80
2018-05-26T20:39:33.707Z,8.17
2018-05-26T20:42:02.927Z,8.17
2018-05-26T20:44:43.140Z,8.30
2018-05-26T20:47:12.381Z,8.13
2018-05-26T20:49:42.341Z,8.37
2018-05-26T20:52:11.648Z,8.83
2018-05-26T20:54:40.785Z,9.30
2018-05-26T20:57:09.939Z,9.47
2018-05-26T20:59:39.104Z,10.13
2018-05-26T21:02:10.272Z,10.47
2018-05-26T21:04:39.472Z,11.00
2018-05-26T21:07:08.619Z,10.23
2018-05-26T21:09:38.696Z,9.20
2018-05-26T21:12:07.887Z,9.33
2018-05-26T21:14:37.192Z,8.80
2018-05-26T21:17:18.514Z,8.33
2018-05-26T21:19:47.771Z,9.17
2018-05-26T21:22:16.924Z,9.07
2018-05-26T21:24:47.356Z,8.00
2018-05-26T21:27:17.337Z,9.23
2018-05-26T21:29:46.537Z,9.37
2018-05-26T21:35:35.567Z,9.20
2018-05-26T21:38:04.802Z,8.27
2018-05-26T21:40:33.987Z,8.60
2018-05-26T21:43:03.288Z,9.10
2018-05-26T21:45:32.601Z,9.57
2018-05-26T21:48:01.889Z,10.13
2018-05-26T21:50:31.015Z,10.17
2018-05-26T21:53:20.280Z,10.63
2018-05-26T22:01:53.688Z,12.17
2018-05-26T22:04:22.937Z,11.20
2018-05-26T22:07:09.493Z,10.97
2018-05-26T22:09:38.687Z,10.97
2018-05-26T22:12:07.884Z,10.70
2018-05-26T22:14:37.099Z,10.43
2018-05-26T22:17:06.297Z,10.30
2018-05-26T22:19:35.492Z,10.43
2018-05-26T22:22:04.737Z,10.80
2018-05-26T22:24:34.714Z,10.57
2018-05-26T22:27:04.103Z,11.30
2018-05-26T22:29:33.604Z,11.37
2018-05-26T22:32:02.787Z,11.63
2018-05-26T22:34:32.107Z,11.00
2018-05-26T22:37:01.407Z,11.50
2018-05-26T22:39:30.674Z,10.13
2018-05-26T22:41:59.920Z,10.87
2018-05-26T22:44:29.059Z,10.60
2018-05-26T22:46:58.251Z,10.87
2018-05-26T22:49:28.520Z,10.97
2018-05-26T22:51:57.728Z,11.27
2018-05-26T22:54:27.017Z,10.80
2018-05-26T22:56:56.211Z,11.60
2018-05-26T22:59:26.232Z,11.33
2018-05-26T23:01:55.432Z,10.93
2018-05-26T23:04:24.752Z,11.73
2018-05-26T23:06:53.931Z,11.50
2018-05-26T23:09:23.434Z,12.43
2018-05-26T23:11:52.579Z,12.17
2018-05-26T23:14:21.992Z,11.60
2018-05-26T23:16:51.948Z,11.67
2018-05-26T23:19:21.145Z,11.90
2018-05-26T23:21:50.348Z,11.97
2018-05-26T23:24:19.545Z,11.50
2018-05-26T23:26:48.827Z,12.30
2018-05-26T23:29:18.014Z,11.37
2018-05-26T23:31:47.343Z,11.10
2018-05-26T23:34:16.640Z,12.20
2018-05-26T23:36:45.853Z,12.10
2018-05-26T23:39:15.241Z,13.03
2018-05-26T23:41:44.612Z,12.47
2018-05-26T23:44:13.785Z,13.07
2018-05-26T23:46:43.249Z,12.60
2018-05-26T23:49:12.397Z,12.47
2018-05-26T23:51:42.447Z,12.30
2018-05-26T23:54:11.759Z,13.30
2018-05-26T23:56:41.008Z,12.20
2018-05-26T23:59:10.259Z,12.47
